Time;durP1;ratioP1;P1;durP2;ratioP2;P2;SDS_P1;SDS_P2;PMS_P1;PMS_P2;Temp;Humidity;BMP_temperature;BMP_pressure;BME280_temperature;BME280_humidity;BME280_pressure;Samples;Min_cycle;Max_cycle;Signal;HPM_P1;HPM_P2
2023/12/09 00:01:24;;;;;;;16.02;8.32;;;12.20;99.90;;;;;;5024675;28;20118;-35
2023/12/09 00:03:50;;;;;;;39.00;10.35;;;12.40;99.90;;;;;;5001567;28;20119;-34
2023/12/09 00:06:17;;;;;;;24.67;9.07;;;12.40;99.90;;;;;;5019959;28;20048;-34
2023/12/09 00:08:43;;;;;;;26.85;8.30;;;12.10;99.90;;;;;;5024685;28;20140;-34
2023/12/09 00:11:09;;;;;;;23.17;8.32;;;12.00;99.90;;;;;;5025963;28;20116;-35
2023/12/09 00:13:34;;;;;;;27.33;9.23;;;12.30;99.90;;;;;;5021537;28;20041;-39
2023/12/09 00:16:00;;;;;;;20.42;9.30;;;12.70;99.90;;;;;;5016466;28;20045;-34
2023/12/09 00:18:26;;;;;;;20.67;9.10;;;12.00;99.90;;;;;;5019718;28;20034;-37
2023/12/09 00:20:51;;;;;;;18.05;8.13;;;13.40;99.90;;;;;;5026150;28;20068;-37
2023/12/09 00:23:17;;;;;;;21.25;8.45;;;12.10;99.90;;;;;;5021977;28;20041;-34
2023/12/09 00:25:43;;;;;;;23.95;8.80;;;13.20;99.90;;;;;;5026221;28;20041;-34
2023/12/09 00:28:08;;;;;;;21.50;8.80;;;12.60;99.90;;;;;;5020923;28;20069;-36
2023/12/09 00:30:34;;;;;;;21.23;9.35;;;12.80;99.90;;;;;;5025352;28;20041;-34
2023/12/09 00:33:00;;;;;;;21.23;8.57;;;12.20;99.90;;;;;;5021831;28;20087;-34
2023/12/09 00:35:26;;;;;;;17.05;8.55;;;12.30;99.90;;;;;;5045134;28;20497;-33
2023/12/09 00:37:51;;;;;;;19.58;8.52;;;12.70;99.90;;;;;;5030913;28;20072;-34
2023/12/09 00:40:18;;;;;;;20.75;8.43;;;12.10;99.90;;;;;;5031723;28;20053;-39
2023/12/09 00:42:43;;;;;;;18.67;8.45;;;12.20;99.90;;;;;;5031928;28;20043;-35
2023/12/09 00:45:10;;;;;;;17.95;8.55;;;12.90;99.90;;;;;;5016381;28;20772;-35
2023/12/09 00:47:36;;;;;;;22.50;10.18;;;12.30;99.90;;;;;;5026978;28;20042;-35
2023/12/09 00:50:02;;;;;;;20.98;8.65;;;12.00;99.90;;;;;;5024545;28;20091;-35
2023/12/09 00:52:27;;;;;;;19.42;8.23;;;12.30;99.90;;;;;;5024207;28;20044;-34
2023/12/09 00:54:53;;;;;;;19.88;9.77;;;12.00;99.90;;;;;;5027710;28;20447;-34
2023/12/09 00:57:20;;;;;;;19.40;8.32;;;12.80;99.90;;;;;;5024427;28;20537;-34
2023/12/09 00:59:46;;;;;;;17.55;8.63;;;12.40;99.90;;;;;;5028303;28;20109;-36
2023/12/09 01:02:12;;;;;;;12.93;7.05;;;12.30;99.90;;;;;;5023869;28;20125;-37
2023/12/09 01:04:37;;;;;;;23.13;8.85;;;12.40;99.90;;;;;;5028668;28;20470;-34
2023/12/09 01:07:03;;;;;;;17.63;8.27;;;12.30;99.90;;;;;;5018947;28;20041;-35
2023/12/09 01:09:29;;;;;;;16.10;8.30;;;12.00;99.90;;;;;;5024802;28;20175;-37
2023/12/09 01:11:55;;;;;;;18.73;8.82;;;12.50;99.90;;;;;;5028644;28;20044;-36
2023/12/09 01:14:20;;;;;;;22.00;8.95;;;12.40;99.90;;;;;;5022664;28;20037;-34
2023/12/09 01:16:46;;;;;;;17.80;7.88;;;12.20;99.90;;;;;;5028866;28;20502;-34
2023/12/09 01:19:12;;;;;;;17.67;8.65;;;12.00;99.90;;;;;;5017771;28;20036;-35
2023/12/09 01:21:37;;;;;;;18.13;8.40;;;12.30;99.90;;;;;;5025084;28;20619;-36
2023/12/09 01:24:04;;;;;;;18.20;8.45;;;12.30;99.90;;;;;;5038726;28;20074;-34
2023/12/09 01:26:30;;;;;;;16.85;7.72;;;12.90;99.90;;;;;;5024771;28;20105;-34
2023/12/09 01:28:57;;;;;;;22.33;7.97;;;12.40;99.90;;;;;;5026922;28;20037;-34
2023/12/09 01:31:22;;;;;;;23.20;9.30;;;12.30;99.90;;;;;;5023165;28;20160;-36
2023/12/09 01:33:48;;;;;;;20.05;7.93;;;12.80;99.90;;;;;;5026377;28;20045;-35
2023/12/09 01:36:14;;;;;;;18.60;7.95;;;12.00;99.90;;;;;;5030135;28;20530;-34
2023/12/09 01:38:39;;;;;;;18.55;8.45;;;12.20;99.90;;;;;;5028118;28;20041;-34
2023/12/09 01:41:05;;;;;;;19.35;8.60;;;12.60;99.90;;;;;;5024472;28;20029;-34
2023/12/09 01:43:31;;;;;;;17.60;7.55;;;12.60;99.90;;;;;;5022140;28;20030;-35
2023/12/09 01:46:05;;;;;;;19.92;7.80;;;12.20;99.90;;;;;;5030202;28;20034;-36
2023/12/09 01:48:32;;;;;;;18.67;7.82;;;12.40;99.90;;;;;;5030622;28;20060;-34
2023/12/09 01:50:59;;;;;;;15.63;7.70;;;12.10;99.90;;;;;;5028378;28;20455;-35
2023/12/09 01:53:24;;;;;;;17.30;7.47;;;12.00;99.90;;;;;;5023727;28;20046;-34
2023/12/09 01:55:50;;;;;;;17.90;7.07;;;12.30;99.90;;;;;;5026295;28;20095;-34
2023/12/09 01:58:17;;;;;;;16.70;7.10;;;12.70;99.90;;;;;;5027841;28;20041;-34
2023/12/09 02:00:43;;;;;;;15.95;7.13;;;12.80;99.90;;;;;;5024453;28;20048;-35
2023/12/09 02:03:09;;;;;;;23.30;7.82;;;12.30;99.90;;;;;;5008764;28;20041;-34
2023/12/09 02:05:34;;;;;;;20.23;7.38;;;12.70;99.90;;;;;;5026607;28;20120;-34
2023/12/09 02:08:00;;;;;;;18.92;7.70;;;12.40;99.90;;;;;;5026660;28;20667;-36
2023/12/09 02:10:27;;;;;;;17.33;6.43;;;12.30;99.90;;;;;;5014623;28;20049;-35
2023/12/09 02:13:10;;;;;;;17.85;6.95;;;12.00;99.90;;;;;;5028219;28;20420;-34
2023/12/09 02:16:16;;;;;;;17.20;6.90;;;13.00;99.90;;;;;;5025899;28;20037;-34
2023/12/09 02:18:43;;;;;;;15.43;6.55;;;12.00;99.90;;;;;;5028090;28;20037;-34
2023/12/09 02:21:09;;;;;;;18.88;6.85;;;12.20;99.90;;;;;;5013373;28;20459;-34
2023/12/09 02:23:35;;;;;;;14.75;7.18;;;12.70;99.90;;;;;;5016322;28;20116;-34
2023/12/09 02:26:07;;;;;;;13.50;6.07;;;12.20;99.90;;;;;;5028380;28;20041;-36
2023/12/09 02:28:36;;;;;;;15.00;5.93;;;12.70;99.90;;;;;;5029622;28;20501;-38
2023/12/09 02:31:13;;;;;;;18.38;8.00;;;12.60;99.90;;;;;;5027760;28;20420;-34
2023/12/09 02:33:40;;;;;;;17.35;7.38;;;12.90;99.90;;;;;;5028408;28;20404;-34
2023/12/09 02:36:09;;;;;;;16.88;6.80;;;12.30;99.90;;;;;;5027645;28;20083;-34
2023/12/09 02:38:37;;;;;;;14.75;6.88;;;12.10;99.90;;;;;;5027111;28;20048;-34
2023/12/09 02:41:04;;;;;;;16.10;6.00;;;12.20;99.90;;;;;;5027732;28;20029;-34
2023/12/09 02:43:30;;;;;;;14.95;6.35;;;12.40;99.90;;;;;;5025732;28;20487;-35
2023/12/09 02:45:56;;;;;;;17.48;7.00;;;12.90;99.90;;;;;;5020436;28;20042;-33
2023/12/09 02:48:23;;;;;;;12.18;5.55;;;12.40;99.90;;;;;;5027829;28;20123;-36
2023/12/09 02:50:49;;;;;;;13.48;6.30;;;12.50;99.90;;;;;;5026573;28;20069;-35
2023/12/09 02:53:15;;;;;;;13.23;6.35;;;13.20;99.90;;;;;;5026278;28;20386;-34
2023/12/09 02:55:40;;;;;;;18.35;6.22;;;12.90;99.90;;;;;;5027058;28;20048;-36
2023/12/09 02:58:06;;;;;;;11.98;5.35;;;12.60;99.90;;;;;;5022281;28;20569;-34
2023/12/09 03:00:32;;;;;;;16.27;6.88;;;13.00;99.90;;;;;;5027978;28;20045;-33
2023/12/09 03:02:57;;;;;;;15.30;6.00;;;12.50;99.90;;;;;;5027977;28;20030;-34
2023/12/09 03:05:23;;;;;;;14.65;5.60;;;12.90;99.90;;;;;;5027482;28;20041;-35
2023/12/09 03:07:48;;;;;;;13.70;5.75;;;12.00;99.90;;;;;;5015572;28;20099;-34
2023/12/09 03:10:14;;;;;;;13.93;6.35;;;12.70;99.90;;;;;;5018182;28;20124;-34
2023/12/09 03:12:40;;;;;;;12.65;5.13;;;12.10;99.90;;;;;;5020054;28;20412;-37
2023/12/09 03:15:06;;;;;;;15.98;5.75;;;12.70;99.90;;;;;;5021562;28;20034;-34
2023/12/09 03:17:35;;;;;;;17.55;5.95;;;12.20;99.90;;;;;;5028030;28;20033;-38
2023/12/09 03:20:02;;;;;;;11.65;5.43;;;12.40;99.90;;;;;;5025428;28;20112;-36
2023/12/09 03:22:29;;;;;;;11.65;4.72;;;11.90;99.90;;;;;;5025292;28;20049;-34
2023/12/09 03:24:54;;;;;;;14.35;5.13;;;12.60;99.90;;;;;;5026899;28;20048;-34
2023/12/09 03:27:20;;;;;;;18.05;6.30;;;12.80;99.90;;;;;;5025130;28;20033;-34
2023/12/09 03:29:46;;;;;;;17.00;5.30;;;12.10;99.90;;;;;;5026937;28;20076;-34
2023/12/09 03:32:11;;;;;;;14.20;5.43;;;12.90;99.90;;;;;;5023678;28;20076;-34
2023/12/09 03:34:37;;;;;;;13.45;5.50;;;12.10;99.90;;;;;;5029401;28;20037;-34
2023/12/09 03:37:02;;;;;;;10.90;5.47;;;12.50;99.90;;;;;;5027221;28;20025;-37
2023/12/09 03:39:28;;;;;;;16.38;6.13;;;12.30;99.90;;;;;;5030560;28;20064;-33
2023/12/09 03:41:54;;;;;;;17.05;5.95;;;12.40;99.90;;;;;;5030347;28;20029;-33
2023/12/09 03:44:19;;;;;;;13.65;5.00;;;12.40;99.90;;;;;;5028207;28;20403;-34
2023/12/09 03:46:45;;;;;;;14.45;6.60;;;12.00;99.90;;;;;;5028605;28;20126;-41
2023/12/09 03:49:10;;;;;;;17.65;6.22;;;13.10;99.90;;;;;;5026965;28;20154;-33
2023/12/09 03:51:36;;;;;;;14.48;5.88;;;12.40;99.90;;;;;;5025810;28;20377;-37
2023/12/09 03:54:01;;;;;;;10.98;6.15;;;12.10;99.90;;;;;;5032082;28;20530;-34
2023/12/09 03:56:27;;;;;;;13.75;4.72;;;12.20;99.90;;;;;;5007805;28;20053;-34
2023/12/09 03:58:53;;;;;;;12.95;5.43;;;12.40;99.90;;;;;;5023733;28;20072;-34
2023/12/09 04:01:19;;;;;;;13.23;5.22;;;12.30;99.90;;;;;;5036949;28;20042;-34
2023/12/09 04:03:44;;;;;;;12.13;4.93;;;12.60;99.90;;;;;;5026824;28;20398;-35
2023/12/09 04:06:10;;;;;;;12.15;6.05;;;12.30;99.90;;;;;;5025635;28;20044;-36
2023/12/09 04:08:35;;;;;;;13.02;5.03;;;12.60;99.90;;;;;;5025028;28;20041;-34
2023/12/09 04:11:02;;;;;;;12.95;5.53;;;12.50;99.90;;;;;;5025089;28;20095;-34
2023/12/09 04:13:28;;;;;;;13.82;5.20;;;12.50;99.90;;;;;;5025482;28;20042;-34
2023/12/09 04:15:54;;;;;;;13.25;4.97;;;11.90;99.90;;;;;;5030510;28;20087;-34
2023/12/09 04:18:19;;;;;;;14.18;5.13;;;12.50;99.90;;;;;;5027851;28;20038;-34
2023/12/09 04:20:45;;;;;;;11.95;4.80;;;12.20;99.90;;;;;;5027851;28;20052;-35
2023/12/09 04:23:11;;;;;;;11.85;4.78;;;12.80;99.90;;;;;;5025802;28;20042;-35
2023/12/09 04:25:36;;;;;;;10.50;4.85;;;12.10;99.90;;;;;;5024838;28;20041;-33
2023/12/09 04:28:02;;;;;;;14.35;5.18;;;12.10;99.90;;;;;;5029012;28;20424;-33
2023/12/09 04:30:28;;;;;;;13.27;5.03;;;12.10;99.90;;;;;;5023711;28;20069;-34
2023/12/09 04:32:53;;;;;;;11.70;5.63;;;12.50;99.90;;;;;;5030346;28;20037;-34
2023/12/09 04:35:19;;;;;;;13.18;4.93;;;12.40;99.90;;;;;;5024669;28;20038;-34
2023/12/09 04:37:45;;;;;;;10.32;4.85;;;12.30;99.90;;;;;;5036765;28;20038;-33
2023/12/09 04:40:11;;;;;;;13.57;5.35;;;12.30;99.90;;;;;;5020109;28;20041;-34
2023/12/09 04:42:38;;;;;;;10.82;5.30;;;12.30;99.90;;;;;;5029505;28;20053;-33
2023/12/09 04:45:05;;;;;;;11.32;5.00;;;12.10;99.90;;;;;;5030969;28;20044;-33
2023/12/09 04:47:31;;;;;;;9.82;4.28;;;12.20;99.90;;;;;;5023642;28;20053;-34
2023/12/09 04:49:57;;;;;;;13.05;4.97;;;;;;;;;;5028794;28;20349;-37
2023/12/09 04:52:23;;;;;;;15.23;4.72;;;12.30;99.90;;;;;;5023221;28;20539;-36
2023/12/09 04:54:49;;;;;;;11.00;4.38;;;12.50;99.90;;;;;;5025633;28;20059;-33
2023/12/09 04:57:15;;;;;;;11.35;4.35;;;11.90;99.90;;;;;;5027598;28;20425;-39
2023/12/09 04:59:40;;;;;;;9.23;4.03;;;12.40;99.90;;;;;;5027485;28;20039;-36
2023/12/09 05:02:06;;;;;;;9.40;4.07;;;12.30;99.90;;;;;;5026836;28;20048;-34
2023/12/09 05:04:31;;;;;;;11.40;3.83;;;12.20;99.90;;;;;;5029347;28;20037;-34
2023/12/09 05:06:57;;;;;;;9.82;3.70;;;12.40;99.90;;;;;;5026560;28;20113;-36
2023/12/09 05:09:23;;;;;;;10.25;4.25;;;12.30;99.90;;;;;;5026533;28;20124;-34
2023/12/09 05:11:48;;;;;;;12.07;4.55;;;12.60;99.90;;;;;;5027382;28;20037;-33
2023/12/09 05:14:14;;;;;;;12.63;4.15;;;12.70;99.90;;;;;;5020643;28;20034;-35
2023/12/09 05:16:40;;;;;;;11.77;4.22;;;13.00;99.90;;;;;;5022164;28;20048;-36
2023/12/09 05:19:06;;;;;;;11.18;3.60;;;12.70;99.90;;;;;;5023298;28;20046;-37
2023/12/09 05:21:32;;;;;;;9.13;4.07;;;12.50;99.90;;;;;;5025344;28;20033;-34
2023/12/09 05:23:58;;;;;;;10.02;3.83;;;12.90;99.90;;;;;;5025895;28;20087;-34
2023/12/09 05:26:25;;;;;;;10.50;4.38;;;13.00;99.90;;;;;;5022409;28;20046;-34
2023/12/09 05:28:52;;;;;;;9.38;4.18;;;12.40;99.90;;;;;;5023478;28;20045;-35
2023/12/09 05:31:17;;;;;;;12.38;3.95;;;12.80;99.90;;;;;;5021981;28;20042;-35
2023/12/09 05:33:43;;;;;;;13.68;4.32;;;12.60;99.90;;;;;;5023909;28;20044;-35
2023/12/09 05:36:09;;;;;;;10.15;3.80;;;12.80;99.90;;;;;;5019645;28;20100;-37
2023/12/09 05:38:35;;;;;;;9.25;3.25;;;13.20;99.90;;;;;;5024175;28;20033;-34
2023/12/09 05:41:01;;;;;;;10.40;4.53;;;13.40;99.90;;;;;;5034141;28;20056;-34
2023/12/09 05:43:27;;;;;;;10.13;4.50;;;12.90;99.90;;;;;;5023468;28;20413;-34
2023/12/09 05:45:52;;;;;;;9.70;4.55;;;12.80;99.90;;;;;;5027092;28;20037;-34
2023/12/09 05:48:18;;;;;;;10.00;4.00;;;13.30;99.90;;;;;;5021851;28;20049;-34
2023/12/09 05:50:44;;;;;;;7.95;3.20;;;12.60;99.90;;;;;;5024162;28;20041;-36
2023/12/09 05:53:10;;;;;;;9.98;3.50;;;12.70;99.90;;;;;;5026172;28;20123;-36
2023/12/09 05:55:36;;;;;;;8.65;3.33;;;12.60;99.90;;;;;;5020202;28;20136;-36
2023/12/09 05:58:03;;;;;;;12.95;3.65;;;12.40;99.90;;;;;;5027151;28;20646;-33
2023/12/09 06:00:29;;;;;;;12.35;3.58;;;13.30;99.90;;;;;;5024879;28;20520;-34
2023/12/09 06:02:54;;;;;;;10.43;3.50;;;13.30;99.90;;;;;;5025697;28;20413;-34
2023/12/09 06:05:20;;;;;;;8.95;3.05;;;13.40;99.90;;;;;;5026988;28;20039;-33
2023/12/09 06:07:46;;;;;;;10.30;4.05;;;13.20;99.90;;;;;;5020508;28;20030;-38
2023/12/09 06:10:11;;;;;;;11.60;3.90;;;13.40;99.90;;;;;;5021370;28;20047;-34
2023/12/09 06:12:37;;;;;;;10.10;3.42;;;12.60;99.90;;;;;;5021565;28;20440;-34
2023/12/09 06:15:04;;;;;;;8.35;3.05;;;12.90;99.90;;;;;;5027061;28;20479;-35
2023/12/09 06:17:29;;;;;;;10.43;3.45;;;12.60;99.90;;;;;;5025065;28;20120;-34
2023/12/09 06:19:55;;;;;;;10.95;3.95;;;12.60;99.90;;;;;;5027501;28;20063;-37
2023/12/09 06:22:21;;;;;;;9.52;3.58;;;14.10;99.90;;;;;;5024711;28;20095;-35
2023/12/09 06:24:46;;;;;;;8.45;3.30;;;13.00;99.90;;;;;;5027033;28;20061;-38
2023/12/09 06:27:12;;;;;;;9.02;3.58;;;12.60;99.90;;;;;;5027445;28;20037;-37
2023/12/09 06:29:38;;;;;;;8.50;3.35;;;13.30;99.90;;;;;;5008733;28;20045;-37
2023/12/09 06:32:04;;;;;;;6.55;2.75;;;13.10;99.90;;;;;;5028836;28;20037;-34
2023/12/09 06:34:30;;;;;;;7.65;3.30;;;13.50;99.90;;;;;;5028211;28;20048;-36
2023/12/09 06:36:56;;;;;;;9.23;3.60;;;13.10;99.90;;;;;;5037347;28;20033;-39
2023/12/09 06:39:22;;;;;;;7.22;3.13;;;12.60;99.90;;;;;;5025396;28;20135;-34
2023/12/09 06:41:48;;;;;;;11.90;4.07;;;13.50;99.90;;;;;;5010589;28;20583;-36
2023/12/09 06:44:14;;;;;;;8.93;3.55;;;12.90;99.90;;;;;;5025033;28;20065;-36
2023/12/09 06:46:40;;;;;;;11.80;3.90;;;13.60;99.90;;;;;;5026670;28;20041;-33
2023/12/09 06:49:06;;;;;;;14.20;4.20;;;13.60;99.90;;;;;;5026684;28;20047;-34
2023/12/09 06:51:32;;;;;;;12.77;3.88;;;13.00;99.90;;;;;;5029476;28;20041;-33
2023/12/09 06:54:00;;;;;;;11.70;4.15;;;12.80;99.90;;;;;;5023384;28;20033;-34
2023/12/09 06:56:26;;;;;;;11.02;4.40;;;12.80;99.90;;;;;;5026555;28;20420;-34
2023/12/09 06:58:52;;;;;;;14.35;4.20;;;13.60;99.90;;;;;;5029022;28;20039;-38
2023/12/09 07:01:18;;;;;;;13.10;3.72;;;13.30;99.90;;;;;;5024970;28;20068;-34
2023/12/09 07:03:44;;;;;;;15.98;5.80;;;13.10;99.90;;;;;;5022712;28;20378;-40
2023/12/09 07:06:09;;;;;;;10.55;4.07;;;13.50;99.90;;;;;;5027286;28;20048;-35
2023/12/09 07:08:35;;;;;;;10.43;3.97;;;14.10;99.90;;;;;;5025392;28;20037;-34
2023/12/09 07:11:01;;;;;;;14.07;4.38;;;13.20;99.90;;;;;;5026543;28;20501;-34
2023/12/09 07:13:26;;;;;;;16.05;4.30;;;13.30;99.90;;;;;;5029015;28;20117;-37
2023/12/09 07:15:52;;;;;;;14.85;4.32;;;13.50;99.90;;;;;;5027422;28;20041;-35
2023/12/09 07:18:17;;;;;;;12.50;4.63;;;14.50;99.90;;;;;;5036629;28;20096;-34
2023/12/09 07:20:43;;;;;;;12.40;4.53;;;13.50;99.90;;;;;;5029334;28;20038;-34
2023/12/09 07:23:09;;;;;;;9.77;4.05;;;13.00;99.90;;;;;;5041246;28;20053;-37
2023/12/09 07:25:34;;;;;;;10.45;3.47;;;13.30;99.90;;;;;;5025606;28;20512;-34
2023/12/09 07:28:00;;;;;;;14.40;4.40;;;13.40;99.90;;;;;;5026287;28;20045;-34
2023/12/09 07:30:26;;;;;;;10.65;4.28;;;13.10;99.90;;;;;;5021765;28;20053;-34
2023/12/09 07:32:51;;;;;;;11.88;3.97;;;13.50;99.90;;;;;;5025875;28;20056;-35
2023/12/09 07:35:17;;;;;;;12.93;3.83;;;13.60;99.90;;;;;;5019104;28;20095;-34
2023/12/09 07:37:43;;;;;;;9.88;3.53;;;13.90;99.90;;;;;;5023759;28;20042;-38
2023/12/09 07:40:11;;;;;;;13.27;4.63;;;13.10;99.90;;;;;;5023789;28;20052;-35
2023/12/09 07:42:38;;;;;;;11.38;4.35;;;13.50;99.90;;;;;;5019593;28;20066;-34
2023/12/09 07:45:04;;;;;;;10.45;4.05;;;13.80;99.90;;;;;;5016162;28;20040;-40
2023/12/09 07:47:30;;;;;;;11.63;3.42;;;12.90;99.90;;;;;;5012629;28;20082;-39
2023/12/09 07:49:55;;;;;;;11.48;3.75;;;13.30;99.90;;;;;;5019100;28;20061;-34
2023/12/09 07:52:21;;;;;;;9.90;3.60;;;13.30;99.90;;;;;;5021362;28;20038;-34
2023/12/09 07:54:47;;;;;;;11.13;3.50;;;13.80;99.90;;;;;;5031817;28;20045;-34
2023/12/09 07:57:14;;;;;;;13.52;3.92;;;13.10;99.90;;;;;;5022162;28;20080;-37
2023/12/09 07:59:39;;;;;;;8.05;3.42;;;13.60;99.90;;;;;;5017557;28;20516;-34
2023/12/09 08:02:05;;;;;;;9.80;3.75;;;13.60;99.90;;;;;;5033412;28;20030;-34
2023/12/09 08:04:31;;;;;;;8.98;3.15;;;13.30;99.90;;;;;;5022752;28;20040;-36
2023/12/09 08:06:56;;;;;;;11.43;3.95;;;13.50;99.90;;;;;;5027363;28;20576;-34
2023/12/09 08:09:22;;;;;;;10.40;3.83;;;13.10;99.90;;;;;;5020337;28;20499;-34
2023/12/09 08:11:48;;;;;;;8.43;3.42;;;13.50;99.90;;;;;;5005131;28;20056;-34
2023/12/09 08:14:13;;;;;;;9.25;3.60;;;13.60;99.90;;;;;;5028105;28;20497;-37
2023/12/09 08:16:39;;;;;;;10.00;3.10;;;13.70;99.90;;;;;;5026515;28;20042;-36
2023/12/09 08:19:05;;;;;;;8.02;3.30;;;13.70;99.90;;;;;;5025708;28;20041;-34
2023/12/09 08:21:40;;;;;;;11.68;4.25;;;13.50;99.90;;;;;;5024396;28;20034;-34
2023/12/09 08:24:06;;;;;;;10.45;3.47;;;13.90;99.90;;;;;;5027859;28;20393;-35
2023/12/09 08:26:33;;;;;;;8.77;3.47;;;13.60;99.90;;;;;;5018030;28;20042;-33
2023/12/09 08:29:00;;;;;;;16.40;4.38;;;13.90;99.90;;;;;;5028417;28;20116;-35
2023/12/09 08:31:26;;;;;;;13.82;4.95;;;13.80;99.90;;;;;;5026325;28;20095;-34
2023/12/09 08:33:51;;;;;;;17.13;5.22;;;13.90;99.90;;;;;;5022542;28;20750;-36
2023/12/09 08:36:17;;;;;;;10.20;3.67;;;14.40;99.90;;;;;;5028649;28;20073;-36
2023/12/09 08:38:42;;;;;;;40.65;15.65;;;13.90;99.90;;;;;;5019166;28;20030;-35
2023/12/09 08:41:08;;;;;;;40.40;12.90;;;14.20;99.90;;;;;;5029016;28;20033;-35
2023/12/09 08:43:34;;;;;;;33.03;12.15;;;13.60;99.90;;;;;;5022025;28;20038;-36
2023/12/09 08:46:00;;;;;;;37.55;9.95;;;14.20;99.90;;;;;;5016505;28;20120;-37
2023/12/09 08:48:26;;;;;;;30.88;9.55;;;14.10;99.90;;;;;;5025464;28;20136;-36
2023/12/09 08:50:52;;;;;;;24.80;8.77;;;14.30;99.90;;;;;;5039732;28;20046;-38
2023/12/09 08:53:17;;;;;;;17.70;7.40;;;14.20;99.90;;;;;;5030688;28;20320;-35
2023/12/09 08:55:44;;;;;;;20.45;7.65;;;14.00;99.90;;;;;;5019914;28;20488;-35
2023/12/09 08:58:09;;;;;;;21.98;7.25;;;14.30;99.90;;;;;;5040311;28;20084;-35
2023/12/09 09:00:39;;;;;;;18.80;6.43;;;14.10;99.90;;;;;;5023134;28;20061;-35
2023/12/09 09:03:04;;;;;;;22.98;6.43;;;13.70;99.90;;;;;;5029823;28;20033;-35
2023/12/09 09:05:30;;;;;;;18.90;6.35;;;14.20;99.90;;;;;;5030103;28;20132;-33
2023/12/09 09:07:56;;;;;;;21.58;5.88;;;14.20;99.90;;;;;;5029267;28;20034;-35
2023/12/09 09:10:22;;;;;;;19.17;6.40;;;14.00;99.90;;;;;;5029831;28;20049;-35
2023/12/09 09:12:48;;;;;;;18.42;6.38;;;14.40;99.90;;;;;;5023017;28;20420;-35
2023/12/09 09:15:15;;;;;;;17.60;5.38;;;14.50;99.90;;;;;;5028543;28;20046;-35
2023/12/09 09:17:41;;;;;;;20.63;5.78;;;14.00;99.90;;;;;;5024294;28;20090;-32
2023/12/09 09:20:07;;;;;;;15.65;5.88;;;13.90;99.90;;;;;;5028102;28;20038;-35
2023/12/09 09:22:33;;;;;;;14.30;5.18;;;13.70;99.90;;;;;;5023847;28;20426;-34
2023/12/09 09:24:59;;;;;;;18.25;6.07;;;14.80;99.90;;;;;;5020933;28;20041;-35
2023/12/09 09:27:25;;;;;;;13.30;4.35;;;14.00;99.90;;;;;;5027443;28;20408;-35
2023/12/09 09:29:51;;;;;;;18.27;6.22;;;13.90;99.90;;;;;;5017906;28;20068;-35
2023/12/09 09:32:17;;;;;;;19.05;5.38;;;14.00;99.90;;;;;;5027980;28;20489;-35
2023/12/09 09:34:43;;;;;;;10.05;3.80;;;14.00;99.90;;;;;;5015996;28;20405;-35
2023/12/09 09:37:09;;;;;;;13.25;4.32;;;14.00;99.90;;;;;;5027318;28;20046;-35
2023/12/09 09:39:35;;;;;;;13.60;3.78;;;14.10;99.90;;;;;;5028366;28;20404;-35
2023/12/09 09:42:23;;;;;;;15.50;4.30;;;14.40;99.90;;;;;;5025852;28;20041;-33
2023/12/09 09:45:22;;;;;;;19.95;4.93;;;14.30;99.90;;;;;;5022666;28;20049;-31
2023/12/09 09:47:49;;;;;;;11.13;4.03;;;14.20;99.90;;;;;;5024839;28;20037;-35
2023/12/09 09:50:24;;;;;;;10.20;3.55;;;14.10;99.90;;;;;;5025417;28;20096;-34
2023/12/09 09:52:51;;;;;;;9.93;3.88;;;14.30;99.90;;;;;;5023153;28;20084;-35
2023/12/09 09:55:18;;;;;;;10.65;2.92;;;14.00;99.90;;;;;;5021734;28;20048;-35
2023/12/09 09:57:44;;;;;;;9.23;2.90;;;14.50;99.90;;;;;;5018595;28;20041;-35
2023/12/09 10:00:15;;;;;;;9.73;3.50;;;14.70;99.90;;;;;;5024428;28;20033;-33
2023/12/09 10:02:45;;;;;;;10.15;3.28;;;14.00;99.90;;;;;;5021108;28;20084;-35
2023/12/09 10:05:12;;;;;;;8.02;3.00;;;13.90;99.90;;;;;;5017176;28;20045;-36
2023/12/09 10:07:39;;;;;;;11.80;3.33;;;14.00;99.90;;;;;;5025343;28;20072;-35
2023/12/09 10:10:06;;;;;;;10.70;3.78;;;14.20;99.90;;;;;;5028413;28;21058;-35
2023/12/09 10:12:33;;;;;;;9.75;3.00;;;13.70;99.90;;;;;;5022814;28;20029;-35
2023/12/09 10:14:59;;;;;;;9.18;2.92;;;14.30;99.90;;;;;;5023047;28;20049;-33
2023/12/09 10:17:26;;;;;;;9.27;2.75;;;14.20;99.90;;;;;;5023376;28;20121;-35
2023/12/09 10:19:54;;;;;;;9.85;3.55;;;14.50;99.90;;;;;;5023870;28;20137;-36
2023/12/09 10:22:20;;;;;;;9.57;2.95;;;13.80;99.90;;;;;;5014335;28;20045;-36
2023/12/09 10:24:50;;;;;;;16.77;2.92;;;13.80;99.90;;;;;;5023752;28;20489;-35
2023/12/09 10:27:22;;;;;;;8.15;2.90;;;14.20;99.90;;;;;;5025508;28;20042;-37
2023/12/09 10:29:52;;;;;;;8.60;2.85;;;14.10;99.90;;;;;;5025116;28;20077;-35
2023/12/09 10:32:19;;;;;;;8.13;2.78;;;13.80;99.90;;;;;;5023760;28;20044;-35
2023/12/09 10:34:45;;;;;;;6.95;2.65;;;14.10;99.90;;;;;;5020387;28;20038;-36
2023/12/09 10:37:12;;;;;;;9.27;3.20;;;14.10;99.90;;;;;;5023928;28;20044;-35
2023/12/09 10:39:48;;;;;;;6.32;2.47;;;14.00;99.90;;;;;;5035702;28;20033;-33
2023/12/09 10:42:14;;;;;;;10.07;2.95;;;13.80;99.90;;;;;;5023826;28;20046;-34
2023/12/09 10:44:40;;;;;;;7.40;2.70;;;14.60;99.90;;;;;;5021377;28;20033;-35
2023/12/09 10:47:07;;;;;;;6.63;2.92;;;14.60;99.90;;;;;;5023248;28;20037;-36
2023/12/09 10:49:33;;;;;;;8.90;3.58;;;14.00;99.90;;;;;;5026906;28;20159;-37
2023/12/09 10:51:59;;;;;;;7.53;2.42;;;13.70;99.90;;;;;;5027725;28;20041;-34
2023/12/09 10:54:25;;;;;;;9.63;2.83;;;14.00;99.90;;;;;;5026344;28;20025;-34
2023/12/09 10:56:51;;;;;;;7.28;2.40;;;14.10;99.90;;;;;;5031296;28;20063;-33
2023/12/09 10:59:20;;;;;;;5.72;2.30;;;14.30;99.90;;;;;;5018176;28;20033;-33
2023/12/09 11:01:46;;;;;;;8.80;2.90;;;14.00;99.90;;;;;;5024825;28;20037;-35
2023/12/09 11:04:12;;;;;;;7.60;2.53;;;14.00;99.90;;;;;;5022557;28;20064;-35
2023/12/09 11:06:39;;;;;;;7.45;2.42;;;;;;;;;;5022501;28;20037;-35
2023/12/09 11:09:07;;;;;;;8.07;2.60;;;13.90;99.90;;;;;;5019357;28;20048;-34
2023/12/09 11:11:34;;;;;;;10.38;2.60;;;13.90;99.90;;;;;;5037763;28;20122;-36
2023/12/09 11:14:00;;;;;;;7.88;2.35;;;14.10;99.90;;;;;;5025046;28;20039;-34
2023/12/09 11:16:29;;;;;;;9.57;2.63;;;14.10;99.90;;;;;;5021330;28;20038;-35
2023/12/09 11:18:56;;;;;;;9.30;2.80;;;14.20;99.90;;;;;;5024246;28;20521;-35
2023/12/09 11:21:27;;;;;;;8.30;2.67;;;14.30;99.90;;;;;;5021367;28;20493;-35
2023/12/09 11:23:54;;;;;;;7.35;2.22;;;13.80;99.90;;;;;;5022759;28;20030;-34
2023/12/09 11:26:31;;;;;;;5.82;2.30;;;14.20;99.90;;;;;;5020469;28;20037;-35
2023/12/09 11:29:04;;;;;;;6.50;2.10;;;14.70;99.90;;;;;;5020645;28;20080;-35
2023/12/09 11:31:38;;;;;;;10.50;3.03;;;13.90;99.90;;;;;;5024595;28;20068;-35
2023/12/09 11:34:08;;;;;;;8.18;2.40;;;14.10;99.90;;;;;;5029157;28;20164;-35
2023/12/09 11:36:38;;;;;;;9.15;2.35;;;14.00;99.90;;;;;;5006927;28;20042;-35
2023/12/09 11:39:11;;;;;;;6.13;2.28;;;14.00;99.90;;;;;;5024841;28;20041;-34
2023/12/09 11:41:38;;;;;;;8.00;2.42;;;14.00;99.90;;;;;;5024377;28;20037;-35
2023/12/09 11:44:05;;;;;;;7.93;2.58;;;14.20;99.90;;;;;;5025643;28;20033;-35
2023/12/09 11:46:32;;;;;;;9.07;2.83;;;14.30;99.90;;;;;;5027020;28;20077;-34
2023/12/09 11:48:58;;;;;;;6.57;2.25;;;14.00;99.90;;;;;;5027295;28;20359;-34
2023/12/09 11:51:25;;;;;;;7.18;2.10;;;14.10;99.90;;;;;;5024236;28;20041;-35
2023/12/09 11:53:59;;;;;;;6.57;2.55;;;14.40;99.90;;;;;;5027889;28;20117;-35
2023/12/09 11:56:26;;;;;;;5.72;2.00;;;14.70;99.90;;;;;;5026453;28;20045;-35
2023/12/09 11:58:52;;;;;;;7.65;2.30;;;14.20;99.90;;;;;;5022047;28;20124;-34
2023/12/09 12:01:18;;;;;;;9.80;2.53;;;14.20;99.90;;;;;;5027587;28;20132;-34
2023/12/09 12:03:48;;;;;;;7.65;2.30;;;14.60;99.90;;;;;;5025592;28;20046;-34
2023/12/09 12:06:18;;;;;;;7.15;2.30;;;14.30;99.90;;;;;;5028734;28;20574;-34
2023/12/09 12:08:46;;;;;;;7.55;2.70;;;14.40;99.90;;;;;;5003618;28;20095;-34
2023/12/09 12:11:13;;;;;;;7.22;2.00;;;13.70;99.90;;;;;;5029097;28;20041;-35
2023/12/09 12:13:40;;;;;;;5.38;1.80;;;13.90;99.90;;;;;;5027329;28;20033;-35
2023/12/09 12:16:07;;;;;;;5.78;2.30;;;14.00;99.90;;;;;;5025990;28;20040;-33
2023/12/09 12:18:34;;;;;;;8.55;2.47;;;14.80;99.90;;;;;;5028113;28;20508;-35
2023/12/09 12:20:59;;;;;;;6.32;2.03;;;14.60;99.90;;;;;;5028060;28;20091;-34
2023/12/09 12:23:25;;;;;;;5.38;1.90;;;13.80;99.90;;;;;;5026722;28;20033;-34
2023/12/09 12:25:55;;;;;;;6.05;1.92;;;13.90;99.90;;;;;;5030997;28;20037;-35
2023/12/09 12:28:22;;;;;;;7.88;2.35;;;14.40;99.90;;;;;;5031634;28;20040;-34
2023/12/09 12:30:55;;;;;;;7.70;2.10;;;14.40;99.90;;;;;;5031629;28;20079;-34
2023/12/09 12:33:30;;;;;;;9.05;2.15;;;13.90;99.90;;;;;;5031743;28;20346;-35
2023/12/09 12:35:58;;;;;;;7.35;2.00;;;14.20;99.90;;;;;;5032505;28;20037;-32
2023/12/09 12:38:28;;;;;;;6.80;1.77;;;14.10;99.90;;;;;;5031955;28;20079;-36